Terminal Aerodrome Forecast
Issued by NWS Upton, NY

Home | Current Version | Previous Version | Text Only | Print | Product List | Glossary On
Versions: 1 2 3 4 5 6 7 8 9 10 11 12 13 14 15 16 17 18 19 20 21 22 23 24 25 26 27
000
FTUS41 KOKX 192300 RRA
TAFISP
TAF
KISP 192341Z 2000/2024 12008KT P6SM FEW035 SCT070
     FM200200 13006KT P6SM SCT030 BKN070
     FM200800 17004KT P6SM OVC025
     FM201600 17009KT P6SM BKN035
     FM201800 17013KT P6SM SCT040=

USA.gov is the U.S. government's official web portal to all federal, state and local government web resources and services.